Time;durP1;ratioP1;P1;durP2;ratioP2;P2;SDS_P1;SDS_P2;PMS_P1;PMS_P2;Temp;Humidity;BMP_temperature;BMP_pressure;BME280_temperature;BME280_humidity;BME280_pressure;Samples;Min_cycle;Max_cycle;Signal;HPM_P1;HPM_P2
2021/06/29 00:00:20;;;;;;;9.75;3.20;;;24.80;99.20;;;;;;5062429;28;20191;-76
2021/06/29 00:02:48;;;;;;;7.85;3.35;;;24.80;98.90;;;;;;5062628;28;20674;-78
2021/06/29 00:05:15;;;;;;;10.52;3.55;;;24.80;99.30;;;;;;5065353;28;20198;-77
2021/06/29 00:07:43;;;;;;;8.35;3.13;;;24.80;99.10;;;;;;5066346;28;20194;-80
2021/06/29 00:10:10;;;;;;;6.75;2.88;;;24.80;99.50;;;;;;5062119;28;20300;-78
2021/06/29 00:12:36;;;;;;;7.18;3.05;;;24.80;99.40;;;;;;5067295;28;20185;-76
2021/06/29 00:15:04;;;;;;;6.03;3.10;;;24.90;99.20;;;;;;5060066;28;20217;-78
2021/06/29 00:17:30;;;;;;;7.68;2.83;;;24.90;99.40;;;;;;5046852;28;20687;-77
2021/06/29 00:19:56;;;;;;;8.35;3.00;;;24.90;99.50;;;;;;5064573;28;20520;-77
2021/06/29 00:22:24;;;;;;;9.20;3.25;;;24.90;99.10;;;;;;5063425;28;20281;-77
2021/06/29 00:24:50;;;;;;;8.80;3.25;;;24.90;99.20;;;;;;5060085;28;21007;-78
2021/06/29 00:27:16;;;;;;;7.53;3.53;;;24.80;99.10;;;;;;5063122;28;20218;-77
2021/06/29 00:29:43;;;;;;;10.00;3.47;;;24.80;98.90;;;;;;5062401;28;20179;-76
2021/06/29 00:32:10;;;;;;;7.45;3.05;;;24.80;99.00;;;;;;5080580;28;20206;-78
2021/06/29 00:34:37;;;;;;;8.13;3.28;;;24.80;99.30;;;;;;5063248;28;20271;-75
2021/06/29 00:37:04;;;;;;;10.13;3.28;;;24.90;99.50;;;;;;5046525;28;20187;-79
2021/06/29 00:39:30;;;;;;;6.80;3.22;;;24.90;98.70;;;;;;5061241;28;20183;-76
2021/06/29 00:41:57;;;;;;;8.23;3.20;;;24.80;98.40;;;;;;5079494;28;20194;-78
2021/06/29 00:44:25;;;;;;;8.80;3.55;;;24.70;98.40;;;;;;5080757;28;20198;-76
2021/06/29 00:46:53;;;;;;;5.88;3.67;;;24.70;98.20;;;;;;5063471;28;20198;-75
2021/06/29 00:49:20;;;;;;;6.67;3.10;;;24.70;98.10;;;;;;5065500;28;20195;-79
2021/06/29 00:51:47;;;;;;;5.37;2.87;;;24.70;98.10;;;;;;5064480;28;20436;-76
2021/06/29 00:54:14;;;;;;;9.27;3.30;;;24.70;98.00;;;;;;5064187;28;20279;-75
2021/06/29 00:56:44;;;;;;;7.90;3.25;;;24.70;98.00;;;;;;5080506;28;20240;-76
2021/06/29 00:59:11;;;;;;;9.27;3.20;;;24.70;97.80;;;;;;5056202;28;20231;-79
2021/06/29 01:01:40;;;;;;;7.57;2.97;;;24.70;97.60;;;;;;5063178;28;20523;-76
2021/06/29 01:04:07;;;;;;;8.90;3.05;;;24.60;97.30;;;;;;5060245;28;20193;-76
2021/06/29 01:06:34;;;;;;;7.13;2.97;;;24.70;97.10;;;;;;5068374;28;20277;-77
2021/06/29 01:09:02;;;;;;;10.45;3.17;;;24.70;97.10;;;;;;5045608;28;20650;-78
2021/06/29 01:11:29;;;;;;;8.77;3.53;;;24.60;96.80;;;;;;5066046;28;20206;-78
2021/06/29 01:13:56;;;;;;;6.78;2.90;;;24.60;96.70;;;;;;5079434;28;20263;-78
2021/06/29 01:16:22;;;;;;;9.80;3.20;;;24.60;96.70;;;;;;5064558;28;20210;-78
2021/06/29 01:18:48;;;;;;;10.88;3.15;;;24.60;96.70;;;;;;5068483;28;20729;-79
2021/06/29 01:21:19;;;;;;;6.97;2.40;;;24.50;96.80;;;;;;5063814;28;20663;-78
2021/06/29 01:23:56;;;;;;;7.50;3.20;;;24.60;96.50;;;;;;5065910;28;20195;-78
2021/06/29 01:26:25;;;;;;;7.60;3.15;;;24.60;96.40;;;;;;5045335;28;20519;-79
2021/06/29 01:29:02;;;;;;;7.60;3.05;;;24.60;96.10;;;;;;5069800;28;20719;-78
2021/06/29 01:31:30;;;;;;;5.65;2.72;;;24.60;96.20;;;;;;5064862;28;20217;-78
2021/06/29 01:33:57;;;;;;;12.63;2.88;;;24.60;96.20;;;;;;5071018;28;20670;-78
2021/06/29 01:36:36;;;;;;;6.72;2.75;;;24.60;96.10;;;;;;5067743;28;20270;-78
2021/06/29 01:39:07;;;;;;;7.60;2.65;;;24.60;96.30;;;;;;5068282;28;20324;-79
2021/06/29 01:41:34;;;;;;;7.87;3.07;;;24.60;96.30;;;;;;5066481;28;20186;-80
2021/06/29 01:44:13;;;;;;;4.00;2.70;;;24.60;96.20;;;;;;5071312;28;20225;-80
2021/06/29 01:46:55;;;;;;;11.93;3.07;;;24.60;96.20;;;;;;5064758;28;20187;-76
2021/06/29 01:49:28;;;;;;;6.97;2.80;;;24.60;96.00;;;;;;5067432;28;20222;-77
2021/06/29 01:51:55;;;;;;;9.68;2.83;;;24.60;95.70;;;;;;5055536;28;20231;-79
2021/06/29 01:54:23;;;;;;;8.95;2.90;;;24.60;95.80;;;;;;5050914;28;20265;-77
2021/06/29 01:56:50;;;;;;;9.32;3.20;;;24.60;95.70;;;;;;5069793;28;20183;-78
2021/06/29 01:59:19;;;;;;;8.75;2.75;;;24.50;95.70;;;;;;5064080;28;20505;-77
2021/06/29 02:01:45;;;;;;;7.60;3.13;;;24.50;95.60;;;;;;5081757;28;20273;-78
2021/06/29 02:04:13;;;;;;;7.68;2.78;;;24.50;95.30;;;;;;5067239;28;20648;-77
2021/06/29 02:06:41;;;;;;;6.55;2.42;;;24.50;95.60;;;;;;5065360;28;20213;-80
2021/06/29 02:09:11;;;;;;;6.22;2.90;;;24.50;95.50;;;;;;5066676;28;20521;-77
2021/06/29 02:11:40;;;;;;;10.07;2.92;;;24.50;95.20;;;;;;5080709;28;20214;-78
2021/06/29 02:14:07;;;;;;;11.57;2.85;;;24.50;95.40;;;;;;5081714;28;20586;-78
2021/06/29 02:16:37;;;;;;;8.57;2.83;;;24.50;95.40;;;;;;5070734;28;20439;-77
2021/06/29 02:19:06;;;;;;;7.60;2.63;;;24.50;95.30;;;;;;5066361;28;20179;-77
2021/06/29 02:21:32;;;;;;;4.55;2.45;;;24.50;95.00;;;;;;5062560;28;20245;-79
2021/06/29 02:23:58;;;;;;;10.40;2.90;;;24.50;95.10;;;;;;5051368;28;20531;-76
2021/06/29 02:26:24;;;;;;;7.97;3.10;;;24.50;95.00;;;;;;5067036;28;20429;-76
2021/06/29 02:28:51;;;;;;;7.32;2.95;;;24.40;95.10;;;;;;5068333;28;20182;-76
2021/06/29 02:31:17;;;;;;;10.77;3.30;;;24.40;95.00;;;;;;5087877;28;20562;-76
2021/06/29 02:33:43;;;;;;;11.32;3.05;;;24.40;95.00;;;;;;5071547;28;20210;-75
2021/06/29 02:36:10;;;;;;;8.05;2.65;;;24.40;95.20;;;;;;5085410;28;20187;-77
2021/06/29 02:38:37;;;;;;;8.98;3.13;;;24.40;95.10;;;;;;5050580;28;20175;-76
2021/06/29 02:41:04;;;;;;;10.57;2.92;;;24.40;94.90;;;;;;5068842;28;20692;-77
2021/06/29 02:43:31;;;;;;;14.20;3.13;;;24.40;95.00;;;;;;5082083;28;20648;-76
2021/06/29 02:45:58;;;;;;;8.38;2.65;;;24.40;94.90;;;;;;5069279;28;20240;-76
2021/06/29 02:48:24;;;;;;;5.65;2.83;;;24.40;95.40;;;;;;5084595;28;20578;-76
2021/06/29 02:50:51;;;;;;;9.40;2.95;;;24.40;94.90;;;;;;5066395;28;20214;-78
2021/06/29 02:53:17;;;;;;;10.97;2.77;;;24.40;95.20;;;;;;5047066;28;20207;-77
2021/06/29 02:55:44;;;;;;;11.75;2.95;;;24.40;94.80;;;;;;5051171;28;20183;-80
2021/06/29 02:58:11;;;;;;;10.50;2.97;;;24.40;95.10;;;;;;5083511;28;20244;-78
2021/06/29 03:00:37;;;;;;;7.45;2.88;;;24.40;95.30;;;;;;5066743;28;20194;-78
2021/06/29 03:03:04;;;;;;;6.63;3.25;;;24.40;95.40;;;;;;5080658;28;20190;-80
2021/06/29 03:05:30;;;;;;;10.55;3.45;;;24.40;95.80;;;;;;5065456;28;20187;-78
2021/06/29 03:07:56;;;;;;;7.03;2.85;;;24.40;96.00;;;;;;5067272;28;20179;-78
2021/06/29 03:10:23;;;;;;;4.55;2.83;;;24.40;96.30;;;;;;5067679;28;20207;-77
2021/06/29 03:12:49;;;;;;;10.20;3.33;;;24.40;96.60;;;;;;5065642;28;20248;-79
2021/06/29 03:15:16;;;;;;;11.13;3.20;;;24.40;96.60;;;;;;5067127;28;20183;-77
2021/06/29 03:17:42;;;;;;;8.70;3.08;;;24.50;96.90;;;;;;5050643;28;20198;-78
2021/06/29 03:20:11;;;;;;;6.10;3.17;;;24.50;97.00;;;;;;5084242;28;20193;-78
2021/06/29 03:22:39;;;;;;;10.20;3.30;;;24.50;96.80;;;;;;5054738;28;20190;-75
2021/06/29 03:25:07;;;;;;;8.15;2.92;;;24.50;97.20;;;;;;5067091;28;20202;-75
2021/06/29 03:27:33;;;;;;;11.48;2.88;;;24.50;97.10;;;;;;5085912;28;20191;-77
2021/06/29 03:29:59;;;;;;;10.43;2.78;;;24.50;97.00;;;;;;5054247;28;20178;-78
2021/06/29 03:32:26;;;;;;;6.13;3.05;;;24.50;97.00;;;;;;5081585;28;20179;-77
2021/06/29 03:34:55;;;;;;;7.20;3.05;;;24.50;96.60;;;;;;5076358;28;20666;-79
2021/06/29 03:37:21;;;;;;;9.45;2.72;;;24.50;96.90;;;;;;5067400;28;20586;-77
2021/06/29 03:39:48;;;;;;;11.88;3.10;;;24.50;96.90;;;;;;5068106;28;20179;-77
2021/06/29 03:42:14;;;;;;;6.50;3.22;;;24.50;96.90;;;;;;5068243;28;20518;-78
2021/06/29 03:44:40;;;;;;;5.43;2.92;;;24.50;97.10;;;;;;5065817;28;20236;-78
2021/06/29 03:47:07;;;;;;;11.18;3.13;;;24.50;97.20;;;;;;5069143;28;20201;-78
2021/06/29 03:49:35;;;;;;;9.30;2.85;;;24.50;97.20;;;;;;5068080;28;20191;-78
2021/06/29 03:52:01;;;;;;;5.65;3.13;;;24.50;97.50;;;;;;5067680;28;20279;-79
2021/06/29 03:54:28;;;;;;;9.40;3.03;;;24.50;97.80;;;;;;5065815;28;20179;-81
2021/06/29 03:56:54;;;;;;;8.23;3.10;;;24.50;97.80;;;;;;5087601;28;20193;-79
2021/06/29 03:59:20;;;;;;;5.03;2.88;;;24.50;97.80;;;;;;5065647;28;20310;-77
2021/06/29 04:01:47;;;;;;;12.38;3.22;;;24.50;98.10;;;;;;5063587;28;20187;-77
2021/06/29 04:04:13;;;;;;;8.18;3.33;;;24.50;98.40;;;;;;5082904;28;20199;-79
2021/06/29 04:06:39;;;;;;;9.60;3.22;;;24.50;98.60;;;;;;5067269;28;20748;-79
2021/06/29 04:09:08;;;;;;;6.45;3.10;;;24.50;99.00;;;;;;5083550;28;20233;-78
2021/06/29 04:11:35;;;;;;;9.88;3.15;;;24.50;99.20;;;;;;5065466;28;20241;-79
2021/06/29 04:14:02;;;;;;;9.35;2.92;;;24.60;99.50;;;;;;5059989;28;20194;-78
2021/06/29 04:16:28;;;;;;;8.68;2.70;;;24.60;99.50;;;;;;5067469;28;20183;-78
2021/06/29 04:18:54;;;;;;;8.77;3.25;;;24.60;99.60;;;;;;5069355;28;20187;-80
2021/06/29 04:21:21;;;;;;;9.18;3.10;;;24.60;99.40;;;;;;5065803;28;20185;-79
2021/06/29 04:23:47;;;;;;;9.57;3.03;;;24.70;99.80;;;;;;5067482;28;20179;-78
2021/06/29 04:26:18;;;;;;;8.40;3.33;;;24.70;99.90;;;;;;5075166;28;20949;-78
2021/06/29 04:28:51;;;;;;;6.80;2.80;;;24.70;99.90;;;;;;5074746;28;20555;-78
2021/06/29 04:31:18;;;;;;;6.07;3.03;;;24.70;99.90;;;;;;5088565;28;20831;-76
2021/06/29 04:34:11;;;;;;;8.30;3.08;;;24.70;99.90;;;;;;5042064;28;20320;-78
2021/06/29 04:36:38;;;;;;;7.28;3.08;;;24.70;99.90;;;;;;5051321;28;20649;-79
2021/06/29 04:39:05;;;;;;;8.80;3.03;;;24.80;99.90;;;;;;5054106;28;20179;-78
2021/06/29 04:41:33;;;;;;;6.45;3.42;;;24.80;99.90;;;;;;5067707;28;20197;-76
2021/06/29 04:44:00;;;;;;;7.45;3.20;;;24.80;99.90;;;;;;5071700;28;20194;-78
2021/06/29 04:46:26;;;;;;;10.50;3.10;;;24.90;99.90;;;;;;5062987;28;20182;-75
2021/06/29 04:48:52;;;;;;;6.55;3.03;;;24.90;99.90;;;;;;5081160;28;20198;-75
2021/06/29 04:51:18;;;;;;;7.15;3.05;;;24.90;99.90;;;;;;5064145;28;20552;-78
2021/06/29 04:53:45;;;;;;;11.30;3.47;;;24.90;99.90;;;;;;5045105;28;20206;-78
2021/06/29 04:56:17;;;;;;;11.93;3.22;;;25.00;99.90;;;;;;5048911;28;20183;-77
2021/06/29 04:58:52;;;;;;;10.65;3.33;;;25.00;99.90;;;;;;5047338;28;20186;-77
2021/06/29 05:01:20;;;;;;;12.45;3.50;;;25.10;99.90;;;;;;5065471;28;20678;-77
2021/06/29 05:03:47;;;;;;;10.07;3.58;;;25.10;99.90;;;;;;5065043;28;20516;-78
2021/06/29 05:06:15;;;;;;;6.35;3.20;;;25.10;99.90;;;;;;5068861;28;20316;-76
2021/06/29 05:08:43;;;;;;;5.43;2.90;;;25.10;99.90;;;;;;5049862;28;20217;-74
2021/06/29 05:11:09;;;;;;;6.40;3.00;;;25.20;99.90;;;;;;5065434;28;20214;-78
2021/06/29 05:13:36;;;;;;;7.57;2.95;;;25.20;99.90;;;;;;5066377;28;20182;-78
2021/06/29 05:16:02;;;;;;;8.95;3.45;;;25.20;99.90;;;;;;5067607;28;20666;-76
2021/06/29 05:18:29;;;;;;;6.60;3.35;;;25.30;99.90;;;;;;5049170;28;20186;-79
2021/06/29 05:20:55;;;;;;;8.05;3.78;;;25.30;99.90;;;;;;5065798;28;20180;-79
2021/06/29 05:23:23;;;;;;;8.73;3.28;;;25.30;99.90;;;;;;5066487;28;20670;-80
2021/06/29 05:25:49;;;;;;;7.85;3.58;;;25.30;99.90;;;;;;5082279;28;20263;-80
2021/06/29 05:28:23;;;;;;;8.43;3.58;;;25.40;99.90;;;;;;5044291;28;20194;-78
2021/06/29 05:30:49;;;;;;;11.70;3.30;;;25.40;99.90;;;;;;5070448;28;20297;-75
2021/06/29 05:33:17;;;;;;;10.13;3.15;;;25.50;99.90;;;;;;5064812;28;20183;-77
2021/06/29 05:35:44;;;;;;;9.32;3.30;;;25.50;99.90;;;;;;5046202;28;20637;-78
2021/06/29 05:38:11;;;;;;;8.57;3.55;;;25.60;99.90;;;;;;5066278;28;20191;-78
2021/06/29 05:40:37;;;;;;;10.93;3.30;;;25.60;99.90;;;;;;5068417;28;20635;-77
2021/06/29 05:43:04;;;;;;;9.70;3.60;;;25.70;99.90;;;;;;5063757;28;20198;-79
2021/06/29 05:45:31;;;;;;;6.55;3.70;;;25.70;99.90;;;;;;5061717;28;20537;-77
2021/06/29 05:47:58;;;;;;;8.82;3.70;;;25.70;99.90;;;;;;5066038;28;20187;-79
2021/06/29 05:50:25;;;;;;;13.40;3.80;;;25.80;99.90;;;;;;5060680;28;20310;-77
2021/06/29 05:52:53;;;;;;;10.85;3.40;;;26.00;99.90;;;;;;5059332;28;20909;-79
2021/06/29 05:55:19;;;;;;;7.05;3.08;;;26.00;99.90;;;;;;5066897;28;20193;-76
2021/06/29 05:57:46;;;;;;;9.95;3.35;;;25.90;99.90;;;;;;5048621;28;20185;-75
2021/06/29 06:00:17;;;;;;;6.32;3.47;;;25.90;99.90;;;;;;5064221;28;20606;-76
2021/06/29 06:02:44;;;;;;;7.95;3.72;;;26.10;99.90;;;;;;5067064;28;20592;-74
2021/06/29 06:05:11;;;;;;;8.85;3.35;;;26.10;99.90;;;;;;5065138;28;20797;-76
2021/06/29 06:07:39;;;;;;;8.60;3.83;;;26.30;99.90;;;;;;5063170;28;20222;-74
2021/06/29 06:10:08;;;;;;;9.38;4.03;;;26.20;99.90;;;;;;5062637;28;20534;-75
2021/06/29 06:12:35;;;;;;;7.70;3.60;;;27.10;99.70;;;;;;5063611;28;20179;-75
2021/06/29 06:15:01;;;;;;;9.10;3.38;;;26.80;99.90;;;;;;5067864;28;20665;-76
2021/06/29 06:17:27;;;;;;;12.00;4.10;;;27.00;99.90;;;;;;5084208;28;20539;-75
2021/06/29 06:19:54;;;;;;;8.70;3.53;;;27.70;99.60;;;;;;5051930;28;20590;-75
2021/06/29 06:22:22;;;;;;;14.10;3.85;;;27.50;99.90;;;;;;5062988;28;20190;-76
2021/06/29 06:24:48;;;;;;;11.32;3.60;;;27.20;99.90;;;;;;5075934;28;20211;-74
2021/06/29 06:27:16;;;;;;;18.10;3.75;;;27.70;99.90;;;;;;5064874;28;20306;-76
2021/06/29 06:29:43;;;;;;;10.48;3.83;;;27.90;99.90;;;;;;5070005;28;20189;-77
2021/06/29 06:32:09;;;;;;;18.75;4.00;;;27.60;99.90;;;;;;5067607;28;20369;-77
2021/06/29 06:34:36;;;;;;;12.40;4.05;;;27.80;99.90;;;;;;5069218;28;20206;-78
2021/06/29 06:37:03;;;;;;;13.48;3.63;;;28.30;99.90;;;;;;5053342;28;20262;-75
2021/06/29 06:39:30;;;;;;;14.90;4.55;;;28.80;99.90;;;;;;5050225;28;20273;-75
2021/06/29 06:41:56;;;;;;;19.13;4.95;;;29.10;99.90;;;;;;5050165;28;20185;-78
2021/06/29 06:44:22;;;;;;;13.05;4.75;;;29.00;99.90;;;;;;5066990;28;20190;-78
2021/06/29 06:46:48;;;;;;;18.30;4.80;;;29.00;99.90;;;;;;5066696;28;20281;-78
2021/06/29 06:49:15;;;;;;;18.35;5.10;;;28.90;99.90;;;;;;5058201;28;20198;-75
2021/06/29 06:51:41;;;;;;;17.02;4.35;;;28.90;99.90;;;;;;5051337;28;20298;-78
2021/06/29 06:54:08;;;;;;;18.02;4.78;;;28.90;99.90;;;;;;5066919;28;20184;-78
2021/06/29 06:56:34;;;;;;;17.65;4.40;;;28.70;99.90;;;;;;5064351;28;20676;-77
2021/06/29 06:59:00;;;;;;;20.65;4.32;;;29.10;99.90;;;;;;5048368;28;20179;-74
2021/06/29 07:01:27;;;;;;;14.70;4.97;;;29.20;99.90;;;;;;5053164;28;20233;-79
2021/06/29 07:03:53;;;;;;;16.58;4.68;;;29.40;99.90;;;;;;5069378;28;20218;-79
2021/06/29 07:06:19;;;;;;;9.02;3.50;;;29.50;99.90;;;;;;5068577;28;21176;-74
2021/06/29 07:08:46;;;;;;;12.38;4.32;;;29.30;99.90;;;;;;5057737;28;20187;-76
2021/06/29 07:11:12;;;;;;;13.73;4.55;;;29.30;99.90;;;;;;5069720;28;20687;-77
2021/06/29 07:13:39;;;;;;;12.55;4.25;;;29.60;99.90;;;;;;5070574;28;20232;-74
2021/06/29 07:16:06;;;;;;;8.95;4.38;;;29.80;99.90;;;;;;5065210;28;20507;-76
2021/06/29 07:18:33;;;;;;;14.90;4.30;;;30.00;99.90;;;;;;5069781;28;20175;-76
2021/06/29 07:21:00;;;;;;;17.30;4.75;;;29.60;99.90;;;;;;5075930;28;20820;-76
2021/06/29 07:23:26;;;;;;;11.90;4.35;;;29.80;99.90;;;;;;5074243;28;20202;-76
2021/06/29 07:25:53;;;;;;;16.63;4.40;;;29.90;99.90;;;;;;5064120;28;20233;-75
2021/06/29 07:28:19;;;;;;;14.18;4.53;;;29.80;99.90;;;;;;5051032;28;20283;-76
2021/06/29 07:30:46;;;;;;;19.35;4.65;;;30.10;99.90;;;;;;5050095;28;20207;-75
2021/06/29 07:33:12;;;;;;;13.27;4.68;;;30.10;99.90;;;;;;5076829;28;20186;-77
2021/06/29 07:35:39;;;;;;;21.17;4.75;;;30.10;99.90;;;;;;5070650;28;20215;-76
2021/06/29 07:38:07;;;;;;;13.35;5.35;;;30.00;99.90;;;;;;5075895;28;20185;-74
2021/06/29 07:40:35;;;;;;;13.32;4.63;;;30.10;99.90;;;;;;5066955;28;20183;-76
2021/06/29 07:43:04;;;;;;;10.93;4.20;;;30.10;99.90;;;;;;5082643;28;20187;-78
2021/06/29 07:45:32;;;;;;;15.82;4.82;;;30.10;99.90;;;;;;5063976;28;20187;-77
2021/06/29 07:48:02;;;;;;;16.35;4.70;;;30.00;99.90;;;;;;5073285;28;20548;-75
2021/06/29 07:50:32;;;;;;;11.50;4.75;;;30.10;99.90;;;;;;5046019;28;20426;-76
2021/06/29 07:53:02;;;;;;;17.10;4.40;;;30.10;99.90;;;;;;5061520;28;20740;-75
2021/06/29 07:55:30;;;;;;;20.17;4.95;;;30.40;99.90;;;;;;5070333;28;20729;-76
2021/06/29 07:57:57;;;;;;;16.15;5.43;;;30.30;99.90;;;;;;5043318;28;20183;-75
2021/06/29 08:00:26;;;;;;;16.23;4.78;;;30.40;99.90;;;;;;5063890;28;20191;-76
2021/06/29 08:02:54;;;;;;;11.85;4.25;;;30.60;99.90;;;;;;5062595;28;20722;-77
2021/06/29 08:05:21;;;;;;;11.75;4.50;;;30.60;99.90;;;;;;5062677;28;20694;-77
2021/06/29 08:07:47;;;;;;;15.02;4.85;;;30.70;99.90;;;;;;5065243;28;20750;-79
2021/06/29 08:10:14;;;;;;;16.58;4.45;;;30.80;99.90;;;;;;5049925;28;20179;-77
2021/06/29 08:12:41;;;;;;;17.98;5.40;;;30.80;99.90;;;;;;5047621;28;20178;-77
2021/06/29 08:15:09;;;;;;;14.30;4.65;;;30.50;99.90;;;;;;5083666;28;20198;-76
2021/06/29 08:17:39;;;;;;;11.85;4.30;;;30.60;99.90;;;;;;5071161;28;20175;-78
2021/06/29 08:20:07;;;;;;;14.43;4.40;;;30.60;99.90;;;;;;5056719;28;20191;-76
2021/06/29 08:22:34;;;;;;;14.93;4.78;;;30.60;99.90;;;;;;5044399;28;20928;-76
2021/06/29 08:25:05;;;;;;;15.05;4.57;;;30.90;99.90;;;;;;5070202;28;21135;-76
2021/06/29 08:27:31;;;;;;;17.35;4.95;;;31.10;99.90;;;;;;5069396;28;20199;-79
2021/06/29 08:29:59;;;;;;;12.13;4.28;;;31.20;99.90;;;;;;5083613;28;20199;-76
2021/06/29 08:32:26;;;;;;;15.00;4.32;;;31.40;99.90;;;;;;5060495;28;20263;-76
2021/06/29 08:34:54;;;;;;;15.10;4.78;;;31.50;99.90;;;;;;5062472;28;20201;-75
2021/06/29 08:37:23;;;;;;;9.95;4.22;;;31.90;99.90;;;;;;5051813;28;20799;-75
2021/06/29 08:39:52;;;;;;;12.88;4.25;;;31.80;99.90;;;;;;5065082;28;20237;-76
2021/06/29 08:42:22;;;;;;;13.40;4.80;;;32.00;99.90;;;;;;5080902;28;20199;-78
2021/06/29 08:44:49;;;;;;;17.55;4.20;;;31.80;99.90;;;;;;5081647;28;20243;-76
2021/06/29 08:47:15;;;;;;;12.10;4.28;;;32.10;99.90;;;;;;5081176;28;20186;-76
2021/06/29 08:49:42;;;;;;;8.68;4.03;;;32.10;99.90;;;;;;5066048;28;20193;-78
2021/06/29 08:52:10;;;;;;;11.70;4.10;;;32.30;99.90;;;;;;5079465;28;20214;-75
2021/06/29 08:54:38;;;;;;;16.75;4.13;;;32.50;99.90;;;;;;5061089;28;20187;-75
2021/06/29 08:57:05;;;;;;;14.55;3.78;;;32.50;99.90;;;;;;5048796;28;20642;-78
2021/06/29 08:59:32;;;;;;;15.73;4.05;;;32.60;99.90;;;;;;5076494;28;20189;-78
2021/06/29 09:02:02;;;;;;;12.60;4.18;;;32.70;99.90;;;;;;5062867;28;20191;-78
2021/06/29 09:04:58;;;;;;;9.95;3.45;;;32.60;99.90;;;;;;5067936;28;20269;-78
2021/06/29 09:07:31;;;;;;;11.98;3.85;;;32.80;99.90;;;;;;5060382;28;20215;-78
2021/06/29 09:10:01;;;;;;;17.23;4.03;;;32.90;99.90;;;;;;5082669;28;20639;-78
2021/06/29 09:12:49;;;;;;;10.25;3.05;;;33.10;99.60;;;;;;5060039;28;20289;-79
2021/06/29 09:15:37;;;;;;;12.23;3.80;;;33.10;99.10;;;;;;5080486;28;20760;-78
2021/06/29 09:18:06;;;;;;;12.52;3.42;;;33.30;97.50;;;;;;5047779;28;20190;-79
2021/06/29 09:20:38;;;;;;;13.57;3.58;;;33.50;98.20;;;;;;5065680;28;20190;-80
2021/06/29 09:23:52;;;;;;;10.90;3.40;;;33.50;98.00;;;;;;5076564;28;20184;-76
2021/06/29 09:26:24;;;;;;;16.00;3.67;;;33.60;97.30;;;;;;5064193;28;20182;-78
2021/06/29 09:29:03;;;;;;;9.95;3.33;;;33.90;95.00;;;;;;5078645;28;20190;-75
2021/06/29 09:31:34;;;;;;;14.48;3.67;;;33.90;93.80;;;;;;5058654;28;20207;-75
2021/06/29 09:34:05;;;;;;;16.90;3.30;;;33.90;94.90;;;;;;5049975;28;20178;-76
2021/06/29 10:00:56;;;;;;;9.85;3.10;;;34.40;90.40;;;;;;5109390;27;20543;-75
2021/06/29 10:03:29;;;;;;;11.20;3.00;;;35.10;71.50;;;;;;5118267;27;20208;-74
2021/06/29 10:05:58;;;;;;;6.22;2.83;;;35.20;69.40;;;;;;5113770;27;20243;-75
2021/06/29 10:08:31;;;;;;;9.88;2.78;;;35.10;71.60;;;;;;5118284;27;20185;-76
2021/06/29 10:11:06;;;;;;;10.48;2.58;;;35.50;66.00;;;;;;5103885;28;20177;-74
2021/06/29 10:13:43;;;;;;;10.50;2.50;;;35.50;64.50;;;;;;5123552;27;20296;-73
2021/06/29 10:16:13;;;;;;;11.05;2.78;;;35.50;64.40;;;;;;5112783;27;20191;-75
2021/06/29 10:19:31;;;;;;;10.23;2.75;;;35.70;63.20;;;;;;5096228;28;20304;-74
2021/06/29 10:21:32;;;;;;;9.73;2.67;;;35.80;62.30;;;;;;5091910;28;20189;-75
2021/06/29 10:24:07;;;;;;;12.13;2.88;;;35.90;61.60;;;;;;5104744;28;20282;-74
2021/06/29 10:26:39;;;;;;;11.02;2.63;;;35.80;60.40;;;;;;5097657;28;20181;-76
2021/06/29 10:29:08;;;;;;;9.43;2.67;;;35.70;61.70;;;;;;5110948;27;20185;-76
2021/06/29 10:31:45;;;;;;;8.52;2.50;;;35.70;66.60;;;;;;5116174;27;20341;-75
2021/06/29 10:34:14;;;;;;;8.45;2.40;;;36.00;61.00;;;;;;5101281;28;20190;-76
2021/06/29 10:36:47;;;;;;;10.57;2.95;;;35.80;60.90;;;;;;5100674;28;20189;-75
2021/06/29 10:39:18;;;;;;;9.52;2.50;;;36.00;60.20;;;;;;5118316;27;20218;-73
2021/06/29 10:42:11;;;;;;;15.70;2.83;;;35.60;60.60;;;;;;5101627;28;20268;-74
2021/06/29 10:44:51;;;;;;;8.95;2.67;;;35.80;64.80;;;;;;5113549;27;20172;-76
2021/06/29 10:47:29;;;;;;;7.45;2.83;;;35.80;58.50;;;;;;5103753;28;20242;-75
2021/06/29 10:50:01;;;;;;;14.43;2.90;;;35.80;59.40;;;;;;5134137;27;20531;-74
2021/06/29 10:52:31;;;;;;;6.03;2.38;;;36.20;58.40;;;;;;5118165;27;20173;-76
2021/06/29 10:55:18;;;;;;;13.70;3.53;;;36.20;57.80;;;;;;5117937;27;20235;-75
2021/06/29 10:57:51;;;;;;;8.30;2.38;;;36.10;57.00;;;;;;5095123;28;20228;-77
2021/06/29 11:00:20;;;;;;;8.20;2.40;;;36.00;57.70;;;;;;5088666;28;20198;-76
2021/06/29 11:03:07;;;;;;;9.32;2.58;;;36.20;55.90;;;;;;5103752;27;20782;-77
2021/06/29 11:05:45;;;;;;;9.77;2.78;;;36.30;56.80;;;;;;5085164;28;20186;-76
2021/06/29 11:08:23;;;;;;;11.85;2.38;;;36.20;56.90;;;;;;5068146;28;20277;-76
2021/06/29 11:10:52;;;;;;;10.00;2.83;;;36.10;55.50;;;;;;5101318;27;20640;-77
2021/06/29 11:13:40;;;;;;;14.25;2.80;;;36.00;55.80;;;;;;5102847;27;20209;-77
2021/06/29 11:16:08;;;;;;;8.27;2.50;;;36.10;56.40;;;;;;5066759;28;20190;-75
2021/06/29 11:18:34;;;;;;;10.52;2.88;;;36.10;53.60;;;;;;5084986;28;20306;-78
2021/06/29 11:21:05;;;;;;;8.98;2.50;;;36.10;55.20;;;;;;5103544;27;20183;-77
2021/06/29 11:23:35;;;;;;;12.68;2.50;;;35.90;55.20;;;;;;5086749;28;20297;-78
2021/06/29 11:26:13;;;;;;;8.27;2.70;;;36.20;54.00;;;;;;5101164;27;20185;-76
2021/06/29 11:28:44;;;;;;;11.15;2.42;;;36.30;54.60;;;;;;5112175;27;20186;-76
2021/06/29 11:31:30;;;;;;;5.93;2.10;;;36.20;52.70;;;;;;5070258;28;20182;-76
2021/06/29 11:34:05;;;;;;;8.93;2.40;;;36.10;53.10;;;;;;5086375;28;20186;-75
2021/06/29 11:39:19;;;;;;;10.35;2.83;;;36.10;52.90;;;;;;5087545;28;20289;-76
2021/06/29 11:42:11;;;;;;;7.38;2.70;;;36.00;52.10;;;;;;5094499;28;20185;-77
2021/06/29 11:44:48;;;;;;;28.85;3.03;;;36.20;52.40;;;;;;5101998;27;20190;-75
2021/06/29 11:47:22;;;;;;;8.40;2.47;;;36.00;51.00;;;;;;5086610;28;20576;-76
2021/06/29 11:49:54;;;;;;;9.38;2.50;;;35.90;54.60;;;;;;5089217;28;20206;-75
2021/06/29 11:52:26;;;;;;;10.95;3.05;;;35.90;54.50;;;;;;5084944;28;21301;-76
2021/06/29 11:55:16;;;;;;;7.45;2.50;;;36.00;52.30;;;;;;5106083;27;20193;-76
2021/06/29 11:57:48;;;;;;;8.52;2.58;;;36.10;50.10;;;;;;5090209;28;20244;-75
2021/06/29 12:00:23;;;;;;;5.35;2.35;;;35.50;55.90;;;;;;5078016;28;20751;-76
2021/06/29 12:02:57;;;;;;;7.15;2.33;;;35.50;51.70;;;;;;5086853;28;20564;-76
2021/06/29 12:05:28;;;;;;;6.85;2.45;;;35.70;51.70;;;;;;5082672;28;20639;-75
2021/06/29 12:07:57;;;;;;;10.40;2.85;;;35.90;51.70;;;;;;5102455;27;20196;-75
2021/06/29 12:10:36;;;;;;;8.23;2.35;;;36.20;51.80;;;;;;5074404;28;20217;-76
2021/06/29 12:13:13;;;;;;;9.15;2.42;;;36.00;50.70;;;;;;5064640;28;20200;-76
2021/06/29 12:15:46;;;;;;;14.90;5.20;;;36.20;51.10;;;;;;5100499;27;20692;-76
2021/06/29 12:18:22;;;;;;;33.70;17.58;;;36.30;51.10;;;;;;5085584;28;20206;-76
2021/06/29 12:20:52;;;;;;;23.63;11.93;;;36.10;52.20;;;;;;5080262;28;20193;-75
2021/06/29 12:23:37;;;;;;;7.72;2.55;;;35.90;51.40;;;;;;5081897;28;20222;-77
2021/06/29 12:26:07;;;;;;;9.63;3.13;;;35.80;50.40;;;;;;5083570;28;20483;-77
2021/06/29 12:28:38;;;;;;;10.55;3.38;;;35.30;52.60;;;;;;5081620;28;20551;-76
2021/06/29 12:31:08;;;;;;;5.95;2.35;;;35.60;53.50;;;;;;5056868;28;20197;-76
2021/06/29 12:33:43;;;;;;;8.07;3.25;;;36.00;50.20;;;;;;5099732;27;20194;-76
2021/06/29 12:36:23;;;;;;;8.23;2.58;;;36.20;50.50;;;;;;5103297;27;20220;-77
2021/06/29 12:38:56;;;;;;;8.98;2.65;;;36.30;48.90;;;;;;5080775;28;20299;-77
2021/06/29 12:41:35;;;;;;;5.43;2.97;;;36.20;49.40;;;;;;5088902;28;20250;-76
2021/06/29 12:44:05;;;;;;;10.45;2.33;;;36.00;51.80;;;;;;5098207;28;20192;-75
2021/06/29 12:46:37;;;;;;;7.32;2.78;;;35.70;51.00;;;;;;5100082;28;20449;-76
2021/06/29 12:49:10;;;;;;;13.50;7.97;;;35.90;53.50;;;;;;5067202;28;20216;-76
2021/06/29 12:51:50;;;;;;;12.93;5.53;;;35.70;51.00;;;;;;5097940;27;20182;-75
2021/06/29 12:54:21;;;;;;;25.33;13.98;;;35.40;52.70;;;;;;5087756;28;20181;-77
2021/06/29 12:56:53;;;;;;;18.15;9.98;;;35.70;51.80;;;;;;5077932;28;20214;-75
2021/06/29 12:59:26;;;;;;;8.90;3.30;;;35.70;52.30;;;;;;5080318;28;20206;-74
2021/06/29 13:01:58;;;;;;;7.00;3.90;;;35.60;51.60;;;;;;5072753;28;20179;-77
2021/06/29 13:04:27;;;;;;;14.00;9.65;;;35.50;51.60;;;;;;5079728;28;20214;-75
2021/06/29 13:07:06;;;;;;;6.82;4.50;;;35.30;52.30;;;;;;5083836;28;20228;-75
2021/06/29 13:09:41;;;;;;;6.63;2.70;;;35.60;51.70;;;;;;5069876;28;20244;-76
2021/06/29 13:12:14;;;;;;;7.30;3.03;;;35.30;52.10;;;;;;5099477;27;20187;-76
2021/06/29 13:14:58;;;;;;;13.60;4.78;;;35.40;50.90;;;;;;5081005;28;20534;-75
2021/06/29 13:17:25;;;;;;;16.25;4.60;;;35.20;52.80;;;;;;5100115;27;20280;-74
2021/06/29 13:20:29;;;;;;;7.47;2.55;;;35.20;53.30;;;;;;5102673;27;20623;-78
2021/06/29 13:22:58;;;;;;;12.95;3.20;;;35.20;52.70;;;;;;5051166;28;20194;-75